Time;durP1;ratioP1;P1;durP2;ratioP2;P2;SDS_P1;SDS_P2;PMS_P1;PMS_P2;Temp;Humidity;BMP_temperature;BMP_pressure;BME280_temperature;BME280_humidity;BME280_pressure;Samples;Min_cycle;Max_cycle;Signal;HPM_P1;HPM_P2
2022/10/23 00:00:13;;;;;;;9.90;4.70;;;;;;;12.80;98.83;98215.28;5111617;23;20590;-91
2022/10/23 00:02:16;;;;;;;9.20;4.30;;;;;;;12.80;98.71;98220.50;5137022;23;20579;-91
2022/10/23 00:04:21;;;;;;;10.30;4.83;;;;;;;12.76;97.89;98210.38;5111499;23;20621;-90
2022/10/23 00:06:25;;;;;;;11.63;4.50;;;;;;;12.74;98.07;98210.50;5136075;23;20678;-90
2022/10/23 00:08:28;;;;;;;8.80;4.40;;;;;;;12.74;98.27;98220.97;5110562;23;20613;-91
2022/10/23 00:10:32;;;;;;;20.10;4.90;;;;;;;12.74;97.58;98210.50;5113576;23;20590;-90
2022/10/23 00:12:37;;;;;;;6.23;4.13;;;;;;;12.70;98.81;98196.00;5112006;23;20591;-91
2022/10/23 00:14:41;;;;;;;12.13;4.73;;;;;;;12.69;97.42;98202.16;5111233;23;20575;-91
2022/10/23 00:16:44;;;;;;;7.70;4.50;;;;;;;12.68;97.61;98198.84;5136774;23;20609;-90
2022/10/23 00:18:47;;;;;;;8.50;4.87;;;;;;;12.66;97.34;98191.09;5136042;23;20577;-90
2022/10/23 00:20:50;;;;;;;5.47;3.80;;;;;;;12.66;96.99;98198.09;5136429;23;20648;-90
2022/10/23 00:22:53;;;;;;;10.37;4.60;;;;;;;12.63;96.92;98186.09;5111809;23;20582;-91
2022/10/23 00:24:56;;;;;;;7.03;4.10;;;;;;;12.62;97.63;98186.22;5161414;23;20577;-90
2022/10/23 00:26:59;;;;;;;6.20;3.80;;;;;;;12.62;96.98;98180.97;5135839;23;20643;-91
2022/10/23 00:29:04;;;;;;;7.20;4.10;;;;;;;12.61;97.81;98180.13;5111128;23;20579;-90
2022/10/23 00:31:07;;;;;;;7.70;4.13;;;;;;;12.61;97.10;98176.69;5112049;23;20586;-91
2022/10/23 00:33:10;;;;;;;10.93;4.00;;;;;;;12.58;98.05;98174.31;5111940;23;20586;-90
2022/10/23 00:35:14;;;;;;;9.63;4.30;;;;;;;12.57;98.21;98170.00;5135724;23;20574;-91
2022/10/23 00:37:17;;;;;;;12.30;4.57;;;;;;;12.57;98.01;98181.31;5110210;23;20637;-91
2022/10/23 00:39:20;;;;;;;6.77;4.50;;;;;;;12.56;98.54;98177.03;5111570;23;20577;-90
2022/10/23 00:41:27;;;;;;;9.47;4.17;;;;;;;12.54;98.39;98176.31;5110707;23;20609;-91
2022/10/23 00:43:31;;;;;;;7.70;3.83;;;;;;;12.51;98.35;98171.31;5136678;23;20581;-90
2022/10/23 00:45:35;;;;;;;8.10;3.80;;;;;;;12.47;96.94;98175.09;5134514;23;20581;-90
2022/10/23 00:47:39;;;;;;;10.93;4.23;;;;;;;12.45;97.69;98171.78;5136805;23;20609;-90
2022/10/23 00:49:42;;;;;;;6.70;4.27;;;;;;;12.43;97.33;98168.44;5136810;23;20584;-90
2022/10/23 00:51:49;;;;;;;7.53;4.67;;;;;;;12.44;98.17;98171.88;5111524;23;20574;-90
2022/10/23 00:53:58;;;;;;;12.23;4.10;;;;;;;12.43;98.13;98167.59;5111013;23;20664;-90
2022/10/23 00:56:14;;;;;;;6.00;4.10;;;;;;;12.41;96.88;98165.09;5136643;23;20620;-90
2022/10/23 00:58:19;;;;;;;8.40;4.37;;;;;;;12.39;97.96;98166.16;5110690;23;20598;-91
2022/10/23 01:00:25;;;;;;;7.70;4.23;;;;;;;12.40;98.51;98162.59;5135957;23;21129;-91
2022/10/23 01:02:29;;;;;;;4.40;3.70;;;;;;;12.39;97.66;98164.38;5161528;23;20561;-91
2022/10/23 01:04:33;;;;;;;6.50;3.80;;;;;;;12.39;98.53;98160.94;5110983;23;21057;-91
2022/10/23 01:06:38;;;;;;;6.27;3.60;;;;;;;12.37;98.19;98168.91;5112081;23;20693;-92
2022/10/23 01:08:48;;;;;;;8.67;3.87;;;;;;;12.37;97.25;98168.03;5135975;23;20608;-91
2022/10/23 01:10:55;;;;;;;6.70;3.90;;;;;;;12.36;98.40;98166.41;5112472;23;21349;-91
2022/10/23 01:13:06;;;;;;;6.80;4.17;;;;;;;12.35;98.42;98169.94;5110485;23;21130;-90
2022/10/23 01:15:21;;;;;;;10.00;4.80;;;;;;;12.34;99.22;98160.44;5135343;23;21148;-91
2022/10/23 01:17:30;;;;;;;10.50;3.90;;;;;;;12.32;98.82;98165.78;5111454;23;20657;-90
2022/10/23 01:19:47;;;;;;;9.00;3.37;;;;;;;12.33;98.77;98167.44;5136418;23;20580;-91
2022/10/23 01:21:55;;;;;;;8.43;3.70;;;;;;;12.32;98.31;98165.78;5136502;23;21143;-91
2022/10/23 01:24:21;;;;;;;11.60;3.90;;;;;;;12.31;97.79;98158.03;5136950;23;20664;-90
2022/10/23 01:26:33;;;;;;;5.10;3.60;;;;;;;12.28;97.42;98155.66;5136758;23;21582;-90
2022/10/23 01:28:43;;;;;;;8.40;3.47;;;;;;;12.26;98.05;98155.75;5111544;23;20624;-91
2022/10/23 01:30:48;;;;;;;9.27;4.13;;;;;;;12.25;97.81;98153.25;5111336;23;20629;-91
2022/10/23 01:32:54;;;;;;;7.77;3.70;;;;;;;12.23;98.14;98149.13;5136118;23;20620;-91
2022/10/23 01:35:03;;;;;;;11.27;3.70;;;;;;;12.22;98.28;98150.03;5136994;23;20564;-91
2022/10/23 01:37:08;;;;;;;6.90;3.90;;;;;;;12.21;98.24;98146.59;5113491;23;20593;-91
2022/10/23 01:39:15;;;;;;;13.10;5.20;;;;;;;12.18;97.45;98136.38;5113371;23;20658;-91
2022/10/23 01:41:23;;;;;;;9.23;3.80;;;;;;;12.17;98.74;98139.94;5113128;23;20665;-91
2022/10/23 01:43:30;;;;;;;4.83;3.20;;;;;;;12.18;97.40;98140.75;5112290;23;20584;-91
2022/10/23 01:45:39;;;;;;;8.90;3.37;;;;;;;12.18;97.67;98145.97;5161515;23;21075;-91
2022/10/23 01:47:45;;;;;;;5.30;3.10;;;;;;;12.16;98.96;98148.69;5112847;23;20613;-90
2022/10/23 01:49:51;;;;;;;8.20;3.83;;;;;;;12.16;98.70;98143.47;5137223;23;20573;-91
2022/10/23 01:51:58;;;;;;;5.53;3.30;;;;;;;12.16;98.14;98140.88;5138569;23;20580;-91
2022/10/23 01:54:02;;;;;;;8.20;3.20;;;;;;;12.15;97.71;98140.97;5113536;23;20578;-91
2022/10/23 01:56:09;;;;;;;6.07;2.97;;;;;;;12.12;97.65;98139.44;5136357;23;21127;-91
2022/10/23 01:58:15;;;;;;;6.63;3.50;;;;;;;12.12;98.92;98142.06;5138431;23;20557;-92
2022/10/23 02:00:19;;;;;;;7.33;3.23;;;;;;;12.12;98.00;98149.03;5112921;23;20672;-91
2022/10/23 02:02:28;;;;;;;10.43;3.80;;;;;;;12.09;98.30;98147.50;5137233;23;20588;-90
2022/10/23 02:04:34;;;;;;;7.87;3.77;;;;;;;12.08;98.68;98148.44;5113039;23;20628;-91
2022/10/23 02:06:38;;;;;;;12.50;3.53;;;;;;;12.06;99.06;98137.28;5111654;23;21315;-91
2022/10/23 02:08:42;;;;;;;6.90;3.53;;;;;;;12.05;98.80;98134.78;5112944;23;20704;-91
2022/10/23 02:10:50;;;;;;;6.50;3.60;;;;;;;12.06;98.70;98142.50;5137850;23;20592;-90
2022/10/23 02:12:57;;;;;;;8.53;3.20;;;;;;;12.04;99.70;98133.94;5137479;23;20681;-91
2022/10/23 02:15:06;;;;;;;13.73;3.57;;;;;;;12.01;98.32;98125.47;5137730;23;20638;-91
2022/10/23 02:17:15;;;;;;;7.10;3.30;;;;;;;12.02;97.96;98125.38;5112678;23;20581;-91
2022/10/23 02:19:25;;;;;;;6.43;3.50;;;;;;;12.01;97.43;98126.34;5137657;23;20646;-91
2022/10/23 02:21:43;;;;;;;4.03;2.93;;;;;;;12.00;98.14;98129.06;5112259;23;21149;-91
2022/10/23 02:23:50;;;;;;;9.77;3.47;;;;;;;11.98;98.67;98123.09;5112452;23;20591;-91
2022/10/23 02:26:09;;;;;;;11.13;4.13;;;;;;;11.99;98.43;98125.59;5136103;23;21015;-91
2022/10/23 02:28:16;;;;;;;7.10;3.10;;;;;;;11.97;99.25;98127.50;5137195;23;20612;-91
2022/10/23 02:30:21;;;;;;;11.33;3.57;;;;;;;11.95;98.91;98118.09;5137681;23;20976;-91
2022/10/23 02:32:35;;;;;;;4.90;3.30;;;;;;;11.94;98.68;98111.22;5137595;23;20607;-92
2022/10/23 02:34:41;;;;;;;4.17;3.10;;;;;;;11.95;98.34;98103.25;5137426;23;20570;-91
2022/10/23 02:36:46;;;;;;;7.50;3.10;;;;;;;11.95;98.28;98098.03;5137493;23;20628;-90
2022/10/23 02:38:50;;;;;;;7.80;3.80;;;;;;;11.94;99.22;98096.34;5136497;23;20625;-91
2022/10/23 02:40:55;;;;;;;4.80;3.30;;;;;;;11.94;99.29;98098.97;5112956;23;20618;-90
2022/10/23 02:43:02;;;;;;;9.57;3.70;;;;;;;11.92;99.40;98097.41;5137494;23;21001;-91
2022/10/23 02:45:09;;;;;;;4.93;3.47;;;;;;;11.92;98.39;98095.66;5137106;23;20560;-90
2022/10/23 02:47:24;;;;;;;4.27;3.33;;;;;;;11.93;99.19;98099.91;5138534;23;20585;-91
2022/10/23 02:49:36;;;;;;;7.40;3.40;;;;;;;11.94;99.63;98101.56;5136815;23;21287;-91
2022/10/23 02:51:54;;;;;;;4.70;3.10;;;;;;;11.92;99.85;98098.25;5112449;23;20612;-91
2022/10/23 02:54:03;;;;;;;8.40;3.40;;;;;;;11.92;100.00;98095.66;5112408;23;21093;-90
2022/10/23 02:56:12;;;;;;;4.87;3.37;;;;;;;11.91;98.13;98093.97;5112074;23;20969;-91
2022/10/23 02:58:21;;;;;;;6.23;3.40;;;;;;;11.89;99.19;98089.78;5136553;23;20577;-91
2022/10/23 03:00:30;;;;;;;3.83;2.73;;;;;;;11.88;98.94;98075.91;5112563;23;20589;-90
2022/10/23 03:02:37;;;;;;;11.10;3.50;;;;;;;11.86;99.06;98072.56;5112537;23;20897;-90
2022/10/23 03:04:42;;;;;;;7.20;3.67;;;;;;;11.85;99.10;98081.34;5138007;23;20595;-91
2022/10/23 03:06:47;;;;;;;6.03;3.50;;;;;;;11.85;98.97;98077.91;5138168;23;20687;-91
2022/10/23 03:08:54;;;;;;;3.73;3.10;;;;;;;11.82;98.91;98073.72;5138235;23;20629;-91
2022/10/23 03:11:00;;;;;;;8.83;4.37;;;;;;;11.82;99.13;98078.97;5113216;23;20968;-91
2022/10/23 03:13:04;;;;;;;4.40;3.27;;;;;;;11.82;98.58;98080.75;5113136;23;20574;-91
2022/10/23 03:15:16;;;;;;;5.07;3.43;;;;;;;11.81;99.10;98081.69;5112627;23;21334;-90
2022/10/23 03:17:20;;;;;;;3.67;3.23;;;;;;;11.81;99.16;98064.22;5137080;23;20569;-91
2022/10/23 03:19:23;;;;;;;9.10;3.30;;;;;;;11.82;99.17;98070.28;5137549;23;20604;-91
2022/10/23 03:21:26;;;;;;;6.57;3.57;;;;;;;11.82;99.17;98065.06;5111980;23;21437;-91
2022/10/23 03:23:30;;;;;;;10.90;3.97;;;;;;;11.82;99.81;98067.69;5111562;23;20972;-90
2022/10/23 03:25:34;;;;;;;6.60;3.37;;;;;;;11.81;99.35;98063.38;5111954;23;20694;-91
2022/10/23 03:27:37;;;;;;;4.97;3.27;;;;;;;11.84;98.84;98068.41;5138708;23;20920;-90
2022/10/23 03:29:43;;;;;;;6.07;3.13;;;;;;;11.84;99.45;98064.00;5112219;23;20606;-92
2022/10/23 03:31:49;;;;;;;5.00;3.43;;;;;;;11.85;100.00;98064.84;5112878;23;20972;-90
2022/10/23 03:33:52;;;;;;;7.10;3.40;;;;;;;11.86;99.75;98066.50;5137184;23;20954;-91
2022/10/23 03:35:56;;;;;;;11.60;3.40;;;;;;;11.86;99.72;98069.97;5136654;23;21155;-91
2022/10/23 03:37:59;;;;;;;9.10;3.50;;;;;;;11.86;99.59;98069.09;5111969;23;20624;-91
2022/10/23 03:40:05;;;;;;;6.17;2.90;;;;;;;11.87;100.00;98055.94;5112538;23;20586;-90
2022/10/23 03:42:10;;;;;;;7.70;3.33;;;;;;;11.86;99.61;98056.91;5112888;23;20578;-91
2022/10/23 03:44:13;;;;;;;3.93;3.13;;;;;;;11.87;100.00;98052.50;5111653;23;21258;-91
2022/10/23 03:46:19;;;;;;;4.20;2.90;;;;;;;11.88;99.46;98055.00;5135692;23;20603;-91
2022/10/23 03:48:25;;;;;;;6.00;3.60;;;;;;;11.88;100.00;98054.16;5112443;23;20622;-91
2022/10/23 03:50:33;;;;;;;5.83;2.87;;;;;;;11.87;99.47;98050.69;5112531;23;20586;-91
2022/10/23 03:52:36;;;;;;;9.03;3.00;;;;;;;11.85;100.00;98050.00;5111894;23;20633;-91
2022/10/23 03:54:39;;;;;;;7.63;3.63;;;;;;;11.88;99.66;98055.00;5108810;23;20574;-90
2022/10/23 03:56:43;;;;;;;5.93;3.03;;;;;;;11.87;100.00;98047.25;5137025;23;20580;-92
2022/10/23 03:58:47;;;;;;;4.50;3.10;;;;;;;11.86;100.00;98050.81;5111791;23;20588;-91
2022/10/23 04:00:50;;;;;;;8.30;2.70;;;;;;;11.84;98.57;98052.72;5111367;23;20924;-91
2022/10/23 04:02:53;;;;;;;12.47;5.20;;;;;;;11.84;98.79;98050.09;5136840;23;20585;-91
2022/10/23 04:04:56;;;;;;;7.80;3.43;;;;;;;11.85;98.32;98050.00;5112501;23;20589;-91
2022/10/23 04:06:59;;;;;;;7.77;3.37;;;;;;;11.83;98.74;98051.91;5136334;23;20954;-91
2022/10/23 04:09:03;;;;;;;4.30;3.40;;;;;;;11.81;99.60;98047.72;5112363;23;20733;-91
2022/10/23 04:11:07;;;;;;;6.37;3.07;;;;;;;11.82;99.85;98049.41;5138349;23;20680;-91
2022/10/23 04:13:19;;;;;;;4.43;2.93;;;;;;;11.81;98.78;98045.09;5137067;23;20588;-91
2022/10/23 04:15:22;;;;;;;5.53;3.30;;;;;;;11.81;99.67;98052.94;5135189;23;20620;-91
2022/10/23 04:17:25;;;;;;;11.00;3.53;;;;;;;11.81;98.28;98055.56;5137374;23;21142;-91
2022/10/23 04:19:28;;;;;;;6.37;3.13;;;;;;;11.80;100.00;98051.25;5111846;23;20713;-91
2022/10/23 04:21:31;;;;;;;8.17;3.00;;;;;;;11.80;98.48;98046.91;5111213;23;20632;-91
2022/10/23 04:23:36;;;;;;;4.40;3.07;;;;;;;11.79;99.41;98054.84;5111483;23;20597;-91
2022/10/23 04:25:40;;;;;;;14.03;4.73;;;;;;;11.79;98.95;98055.66;5137361;23;20669;-90
2022/10/23 04:27:44;;;;;;;3.67;2.80;;;;;;;11.76;99.10;98042.81;5111392;23;20566;-90
2022/10/23 04:29:49;;;;;;;5.83;3.03;;;;;;;11.78;98.40;98050.56;5112944;23;20634;-91
2022/10/23 04:31:52;;;;;;;6.87;3.20;;;;;;;11.78;98.90;98054.00;5136733;23;20565;-90
2022/10/23 04:33:55;;;;;;;7.60;3.30;;;;;;;11.78;98.10;98055.78;5136467;23;20576;-90
2022/10/23 04:36:06;;;;;;;6.13;3.40;;;;;;;11.77;99.14;98054.97;5135534;23;20619;-92
2022/10/23 04:38:09;;;;;;;6.93;3.03;;;;;;;11.76;100.00;98055.91;5161415;23;20584;-91
2022/10/23 04:40:13;;;;;;;5.10;3.17;;;;;;;11.76;99.53;98058.50;5111742;23;20669;-91
2022/10/23 04:42:16;;;;;;;6.83;3.20;;;;;;;11.75;99.78;98054.22;5137561;23;20639;-91
2022/10/23 04:44:19;;;;;;;8.43;3.37;;;;;;;11.74;98.29;98051.72;5136280;23;20588;-91
2022/10/23 04:46:23;;;;;;;6.63;3.03;;;;;;;11.75;100.00;98049.94;5112030;23;20963;-91
2022/10/23 04:48:26;;;;;;;4.67;3.00;;;;;;;11.75;99.41;98047.34;5112286;23;20589;-92
2022/10/23 04:50:57;;;;;;;4.97;3.00;;;;;;;11.73;98.22;98050.06;5135480;23;20600;-91
2022/10/23 04:53:14;;;;;;;3.73;2.90;;;;;;;11.74;100.00;98045.66;5136870;23;20573;-92
2022/10/23 04:55:35;;;;;;;6.97;3.17;;;;;;;11.73;98.17;98049.22;5111923;23;20579;-91
2022/10/23 04:57:48;;;;;;;5.00;3.00;;;;;;;11.72;98.23;98050.19;5111067;23;20578;-91
2022/10/23 04:59:55;;;;;;;7.30;3.20;;;;;;;11.70;98.49;98046.81;5136918;23;20573;-91
2022/10/23 05:02:00;;;;;;;3.03;2.60;;;;;;;11.72;100.00;98050.19;5111785;23;20666;-90
2022/10/23 05:04:03;;;;;;;5.00;2.93;;;;;;;11.73;99.72;98049.22;5137473;23;20580;-90
2022/10/23 05:06:11;;;;;;;5.63;3.00;;;;;;;11.73;98.58;98044.84;5137127;23;20589;-90
2022/10/23 05:08:23;;;;;;;5.90;3.03;;;;;;;11.74;99.53;98043.88;5136154;23;20736;-91
2022/10/23 05:10:41;;;;;;;5.23;2.60;;;;;;;11.75;100.00;98044.72;5139047;23;21131;-91
2022/10/23 05:12:47;;;;;;;5.40;3.10;;;;;;;11.75;100.00;98047.34;5114397;23;20561;-92
2022/10/23 05:14:50;;;;;;;3.97;2.83;;;;;;;11.75;100.00;98048.16;5113075;23;20590;-90
2022/10/23 05:16:56;;;;;;;6.97;2.87;;;;;;;11.76;100.00;98055.06;5113400;23;20578;-90
2022/10/23 05:19:01;;;;;;;4.00;2.97;;;;;;;11.76;100.00;98053.28;5139503;23;20565;-91
2022/10/23 05:21:08;;;;;;;3.37;2.87;;;;;;;11.76;99.74;98045.44;5139681;23;20627;-90
2022/10/23 05:23:16;;;;;;;4.50;3.20;;;;;;;11.76;100.00;98040.22;5114103;23;20578;-91
2022/10/23 05:25:30;;;;;;;4.33;3.10;;;;;;;11.77;99.33;98035.81;5113177;23;20590;-90
2022/10/23 05:27:44;;;;;;;4.80;3.30;;;;;;;11.77;100.00;98036.66;5112807;23;20676;-91
2022/10/23 05:29:49;;;;;;;5.13;2.60;;;;;;;11.78;100.00;98042.72;5138060;23;20613;-91
2022/10/23 05:32:00;;;;;;;7.20;3.50;;;;;;;11.78;100.00;98043.53;5139529;23;20569;-91
2022/10/23 05:34:07;;;;;;;3.70;2.67;;;;;;;11.75;100.00;98036.88;5139087;23;20573;-92
2022/10/23 05:36:18;;;;;;;4.90;2.73;;;;;;;11.76;100.00;98039.38;5138925;23;20588;-91
2022/10/23 05:38:22;;;;;;;3.80;2.67;;;;;;;11.75;100.00;98038.53;5137753;23;20581;-91
2022/10/23 05:40:25;;;;;;;3.40;2.50;;;;;;;11.75;98.87;98032.50;5164275;23;20575;-92
2022/10/23 05:42:36;;;;;;;2.90;2.60;;;;;;;11.76;100.00;98034.16;5114283;23;20574;-90
2022/10/23 05:44:43;;;;;;;8.07;3.10;;;;;;;11.77;99.89;98031.44;5114174;23;21205;-91
2022/10/23 05:47:17;;;;;;;10.97;3.40;;;;;;;11.77;100.00;98035.81;5115072;23;20641;-90
2022/10/23 05:49:40;;;;;;;4.83;3.30;;;;;;;11.77;100.00;98031.44;5138967;23;20609;-91
2022/10/23 05:52:02;;;;;;;5.70;3.30;;;;;;;11.76;100.00;98024.53;5140448;23;20588;-94
2022/10/23 05:54:17;;;;;;;6.30;3.10;;;;;;;11.77;100.00;98033.19;5138283;23;20624;-94
2022/10/23 05:56:40;;;;;;;4.23;2.43;;;;;;;11.76;100.00;98027.16;5129835;23;21011;-93
2022/10/23 05:58:57;;;;;;;4.47;3.07;;;;;;;11.75;100.00;98022.88;5163946;23;20587;-94
2022/10/23 06:01:07;;;;;;;5.33;2.80;;;;;;;11.78;100.00;98021.81;5136878;23;20573;-94
2022/10/23 06:03:27;;;;;;;8.80;3.33;;;;;;;11.78;99.85;98016.59;5163097;23;20568;-94
2022/10/23 06:05:31;;;;;;;4.17;3.77;;;;;;;11.80;100.00;98022.53;5112301;23;20648;-93
2022/10/23 06:08:09;;;;;;;4.20;3.00;;;;;;;11.79;100.00;98013.03;5125069;23;20612;-93
2022/10/23 06:10:13;;;;;;;6.83;3.37;;;;;;;11.79;99.53;98011.25;5137990;23;20620;-94
2022/10/23 06:12:20;;;;;;;5.17;3.50;;;;;;;11.80;100.00;98009.47;5139104;23;20585;-91
2022/10/23 06:14:25;;;;;;;4.83;3.40;;;;;;;11.81;100.00;98011.97;5111950;23;20578;-91
2022/10/23 06:16:29;;;;;;;5.97;3.40;;;;;;;11.83;100.00;98004.00;5137063;23;20600;-89
2022/10/23 06:18:32;;;;;;;4.47;3.10;;;;;;;11.85;99.78;98009.97;5138443;23;20639;-90
2022/10/23 06:20:43;;;;;;;5.10;3.40;;;;;;;11.88;100.00;98007.94;5138066;23;20573;-90
2022/10/23 06:22:56;;;;;;;10.80;3.50;;;;;;;11.91;100.00;98002.50;5131771;23;20671;-90
2022/10/23 06:25:19;;;;;;;7.20;3.20;;;;;;;11.94;100.00;98004.06;5136126;23;20577;-90
2022/10/23 06:27:22;;;;;;;5.90;3.50;;;;;;;11.97;100.00;98012.50;5112433;23;20578;-90
2022/10/23 06:29:26;;;;;;;14.37;4.10;;;;;;;12.02;100.00;98010.34;5137375;23;20878;-90
2022/10/23 06:31:29;;;;;;;5.30;4.10;;;;;;;12.04;100.00;98008.47;5108649;23;20625;-90
2022/10/23 06:33:33;;;;;;;8.13;3.67;;;;;;;12.05;99.95;98015.34;5137853;23;20604;-90
2022/10/23 06:35:38;;;;;;;7.73;3.70;;;;;;;12.06;100.00;98011.81;5112582;23;20668;-91
2022/10/23 06:37:42;;;;;;;9.03;5.47;;;;;;;12.09;100.00;98016.78;5112917;23;20582;-91
2022/10/23 06:39:52;;;;;;;7.30;4.43;;;;;;;12.13;100.00;98017.38;5111532;23;20578;-91
2022/10/23 06:42:10;;;;;;;7.63;3.63;;;;;;;12.14;100.00;98011.22;5137278;23;20589;-90
2022/10/23 06:44:43;;;;;;;4.83;4.30;;;;;;;12.18;100.00;98016.09;5118448;23;21261;-91
2022/10/23 06:46:47;;;;;;;5.67;3.73;;;;;;;12.20;100.00;98008.16;5110035;23;20596;-90
2022/10/23 06:49:14;;;;;;;7.20;3.53;;;;;;;12.25;100.00;98009.44;5136704;23;20584;-88
2022/10/23 06:51:22;;;;;;;7.60;3.20;;;;;;;12.24;100.00;97999.94;5137020;23;20676;-90
2022/10/23 06:53:27;;;;;;;9.13;4.30;;;;;;;12.30;100.00;97994.25;5112405;23;20653;-90
2022/10/23 06:55:40;;;;;;;11.13;3.07;;;;;;;12.33;100.00;97994.03;5135740;23;21424;-89
2022/10/23 06:57:44;;;;;;;5.00;3.60;;;;;;;12.34;100.00;97995.66;5112593;23;20664;-88
2022/10/23 06:59:48;;;;;;;5.57;3.70;;;;;;;12.39;100.00;97999.59;5113006;23;21482;-88
2022/10/23 07:01:52;;;;;;;6.33;3.67;;;;;;;12.42;100.00;98009.00;5112303;23;20578;-88
2022/10/23 07:03:57;;;;;;;3.97;3.53;;;;;;;12.47;100.00;98001.63;5136311;23;20588;-89
2022/10/23 07:06:02;;;;;;;4.03;3.30;;;;;;;12.53;100.00;98006.38;5137371;23;20908;-88
2022/10/23 07:08:05;;;;;;;7.20;3.87;;;;;;;12.56;100.00;98012.22;5136607;23;21201;-90
2022/10/23 07:10:16;;;;;;;9.13;3.63;;;;;;;12.61;100.00;98007.44;5137575;23;20612;-89
2022/10/23 07:12:22;;;;;;;5.70;4.10;;;;;;;12.65;100.00;98000.22;5113303;23;21070;-89
2022/10/23 07:14:37;;;;;;;10.57;3.30;;;;;;;12.70;100.00;97997.13;5112203;23;21139;-89
2022/10/23 07:16:41;;;;;;;5.83;3.40;;;;;;;12.74;100.00;97995.91;5112177;23;20681;-89
2022/10/23 07:18:46;;;;;;;12.27;3.80;;;;;;;12.79;100.00;97991.16;5112833;23;20586;-88
2022/10/23 07:21:16;;;;;;;6.13;3.80;;;;;;;12.82;100.00;97996.19;5114956;23;20695;-89
2022/10/23 07:23:19;;;;;;;6.73;3.23;;;;;;;12.87;100.00;97996.66;5113036;23;20584;-90
2022/10/23 07:25:25;;;;;;;6.13;3.60;;;;;;;12.93;100.00;97998.78;5113553;23;20582;-89
2022/10/23 07:27:29;;;;;;;5.17;3.30;;;;;;;12.99;100.00;97998.28;5112935;23;20570;-89
2022/10/23 07:29:36;;;;;;;5.87;3.77;;;;;;;13.09;100.00;97996.59;5138489;23;20600;-89
2022/10/23 07:31:39;;;;;;;9.07;4.20;;;;;;;13.17;100.00;97999.44;5113098;23;20701;-89
2022/10/23 07:34:01;;;;;;;6.00;4.00;;;;;;;13.23;100.00;98004.19;5138883;23;20608;-90
2022/10/23 07:36:05;;;;;;;4.70;3.80;;;;;;;13.26;100.00;97998.69;5164106;23;20596;-87
2022/10/23 07:38:08;;;;;;;5.27;4.20;;;;;;;13.34;100.00;98002.38;5138547;23;21105;-89
2022/10/23 07:40:17;;;;;;;3.60;3.27;;;;;;;13.42;100.00;98010.44;5114211;23;20573;-88
2022/10/23 07:42:22;;;;;;;8.80;3.80;;;;;;;13.51;100.00;98011.47;5114371;23;20710;-88
2022/10/23 07:44:25;;;;;;;5.73;4.43;;;;;;;13.59;100.00;98001.19;5113508;23;20610;-89
2022/10/23 07:46:30;;;;;;;5.50;3.60;;;;;;;13.68;100.00;98009.13;5139025;23;20577;-89
2022/10/23 07:48:33;;;;;;;7.00;4.03;;;;;;;13.76;100.00;98012.81;5113716;23;20574;-89
2022/10/23 07:50:38;;;;;;;12.10;4.20;;;;;;;13.84;100.00;98018.25;5137785;23;20656;-87
2022/10/23 07:52:41;;;;;;;4.47;3.70;;;;;;;13.94;100.00;98026.19;5138564;23;20635;-88
2022/10/23 07:54:46;;;;;;;7.73;4.23;;;;;;;14.03;100.00;98018.41;5114317;23;20606;-87
2022/10/23 07:56:56;;;;;;;4.90;4.40;;;;;;;14.13;100.00;98022.78;5114242;23;20579;-87
2022/10/23 07:59:17;;;;;;;9.37;3.80;;;;;;;14.22;100.00;98019.41;5113320;23;20645;-88
2022/10/23 08:01:31;;;;;;;5.30;3.50;;;;;;;14.28;100.00;98024.13;5112606;23;20602;-87
2022/10/23 08:03:35;;;;;;;4.70;3.77;;;;;;;14.34;100.00;98036.72;5135814;23;20573;-87
2022/10/23 08:05:39;;;;;;;4.90;3.73;;;;;;;14.36;100.00;98033.97;5112867;23;20618;-89
2022/10/23 08:07:44;;;;;;;7.80;5.07;;;;;;;14.41;99.85;98044.91;5110913;23;20596;-89
2022/10/23 08:09:47;;;;;;;5.40;4.20;;;;;;;14.49;100.00;98034.59;5112964;23;20679;-89
2022/10/23 08:11:50;;;;;;;7.60;4.10;;;;;;;14.61;100.00;98032.59;5112592;23;20611;-89
2022/10/23 08:13:56;;;;;;;4.60;3.60;;;;;;;14.78;100.00;98034.59;5137354;23;20578;-89
2022/10/23 08:16:03;;;;;;;6.63;3.90;;;;;;;14.89;99.61;98034.50;5113405;23;20579;-89
2022/10/23 08:18:25;;;;;;;5.40;3.60;;;;;;;14.95;98.05;98031.34;5137518;23;20669;-89
2022/10/23 08:20:28;;;;;;;5.77;3.93;;;;;;;15.04;98.58;98032.34;5112296;23;20588;-89
2022/10/23 08:22:33;;;;;;;5.10;3.80;;;;;;;15.13;99.34;98033.19;5163890;23;20563;-89
2022/10/23 08:24:37;;;;;;;5.27;3.60;;;;;;;15.18;99.04;98032.84;5113703;23;20582;-89
2022/10/23 08:26:40;;;;;;;4.77;3.47;;;;;;;15.28;100.00;98028.44;5138887;23;20582;-89
2022/10/23 08:28:44;;;;;;;8.10;3.70;;;;;;;15.37;98.20;98030.25;5113752;23;20705;-89
2022/10/23 08:30:48;;;;;;;7.67;4.03;;;;;;;15.45;99.82;98031.22;5111951;23;20663;-88
2022/10/23 08:32:53;;;;;;;5.03;4.17;;;;;;;15.59;99.56;98028.19;5135202;23;20884;-88
2022/10/23 08:34:57;;;;;;;6.40;3.97;;;;;;;15.69;98.14;98021.16;5134507;23;20578;-88
2022/10/23 08:37:02;;;;;;;6.43;4.00;;;;;;;15.79;98.89;98024.63;5135098;23;20635;-88
2022/10/23 08:39:09;;;;;;;4.67;4.17;;;;;;;15.96;98.91;98029.19;5133945;23;20566;-87
2022/10/23 08:41:24;;;;;;;5.20;4.00;;;;;;;16.11;96.84;98026.00;5109680;23;20567;-88
2022/10/23 08:43:35;;;;;;;7.73;4.03;;;;;;;16.24;97.43;98021.31;5135184;23;20666;-88
2022/10/23 08:45:56;;;;;;;6.77;4.10;;;;;;;16.40;97.40;98013.66;5137248;23;20582;-88
2022/10/23 08:48:31;;;;;;;5.90;4.60;;;;;;;16.50;97.32;98006.56;5139205;23;20587;-88
2022/10/23 08:50:56;;;;;;;8.47;4.00;;;;;;;16.53;97.14;98007.09;5140312;23;20549;-88
2022/10/23 08:53:02;;;;;;;5.17;3.77;;;;;;;16.51;95.83;98009.88;5139994;23;20615;-88
2022/10/23 08:55:15;;;;;;;9.00;3.87;;;;;;;16.51;96.13;98004.59;5141333;23;20607;-88
2022/10/23 08:57:22;;;;;;;6.97;4.00;;;;;;;16.53;96.45;97994.75;5139497;23;21174;-89
2022/10/23 08:59:27;;;;;;;8.40;4.03;;;;;;;16.53;96.08;97992.13;5139706;23;20618;-88
2022/10/23 09:01:36;;;;;;;6.90;4.30;;;;;;;16.51;97.08;97990.63;5139811;23;20622;-88
2022/10/23 09:03:43;;;;;;;6.07;3.77;;;;;;;16.61;97.01;97994.03;5139241;23;20670;-87
2022/10/23 09:05:56;;;;;;;5.23;4.07;;;;;;;16.73;96.49;97985.84;5139206;23;20572;-87
2022/10/23 09:08:14;;;;;;;6.30;4.10;;;;;;;16.85;97.70;97981.19;5114708;23;20604;-87
2022/10/23 09:10:29;;;;;;;6.37;4.40;;;;;;;16.97;94.97;97980.84;5113349;23;20607;-88
2022/10/23 09:12:32;;;;;;;4.40;3.47;;;;;;;17.06;96.56;97977.31;5139605;23;20626;-87
2022/10/23 09:14:46;;;;;;;7.87;3.70;;;;;;;17.16;96.04;97968.41;5115216;23;20581;-88
2022/10/23 09:16:59;;;;;;;6.90;3.80;;;;;;;17.32;95.56;97973.88;5140179;23;21155;-87
2022/10/23 09:19:11;;;;;;;7.83;3.63;;;;;;;17.38;94.57;97986.47;5140419;23;20576;-88
2022/10/23 09:21:14;;;;;;;19.83;15.93;;;;;;;17.48;95.54;97979.31;5114545;23;20553;-88
2022/10/23 09:23:21;;;;;;;6.57;5.33;;;;;;;17.61;95.61;97987.69;5137475;23;20659;-87
2022/10/23 09:25:26;;;;;;;5.57;3.60;;;;;;;17.78;97.02;97989.50;5112247;23;20855;-88
2022/10/23 09:27:30;;;;;;;7.33;3.87;;;;;;;17.95;96.65;97987.69;5114030;23;20620;-88
2022/10/23 09:29:34;;;;;;;3.90;3.40;;;;;;;18.07;95.27;97989.09;5138873;23;20582;-88
2022/10/23 09:31:48;;;;;;;3.97;3.37;;;;;;;18.19;94.52;98003.75;5138042;23;21150;-88
2022/10/23 09:33:56;;;;;;;7.63;3.23;;;;;;;18.28;94.24;97994.91;5135218;23;20612;-87
2022/10/23 09:36:03;;;;;;;6.53;3.03;;;;;;;18.38;94.42;97994.81;5134630;23;20584;-87
2022/10/23 09:38:25;;;;;;;7.80;3.00;;;;;;;18.46;92.47;97987.75;5138651;23;20588;-88
2022/10/23 09:40:33;;;;;;;7.37;2.73;;;;;;;18.48;91.17;97991.09;5137752;23;20571;-88
2022/10/23 09:42:37;;;;;;;3.83;2.43;;;;;;;18.58;91.05;98003.19;5113518;23;21080;-87
2022/10/23 09:44:48;;;;;;;2.80;2.50;;;;;;;18.72;91.95;97999.13;5136200;23;20564;-87
2022/10/23 09:46:52;;;;;;;11.30;3.53;;;;;;;18.75;90.39;97990.88;5137052;23;20537;-88
2022/10/23 09:48:58;;;;;;;4.10;2.70;;;;;;;18.76;90.48;97982.78;5113277;23;20574;-89
2022/10/23 09:51:16;;;;;;;4.40;2.50;;;;;;;18.85;88.62;97979.22;5112306;23;20630;-87
2022/10/23 09:53:27;;;;;;;4.43;2.80;;;;;;;18.91;88.75;97970.66;5137377;23;21081;-87
2022/10/23 09:55:30;;;;;;;5.23;2.57;;;;;;;19.00;89.84;97972.34;5112571;23;20583;-87
2022/10/23 09:57:37;;;;;;;8.00;2.77;;;;;;;19.08;88.47;97967.13;5137482;23;21152;-87